sensor_id;sensor_type;location;lat;lon;timestamp;temperature;humidity
36660;DHT22;22654;51.054;3.654;2023-02-01T00:02:17;7.00;99.90
36660;DHT22;22654;51.054;3.654;2023-02-01T00:04:43;6.90;99.90
36660;DHT22;22654;51.054;3.654;2023-02-01T00:07:08;6.80;99.90
36660;DHT22;22654;51.054;3.654;2023-02-01T00:09:36;6.70;99.90
36660;DHT22;22654;51.054;3.654;2023-02-01T00:12:01;6.60;99.90
36660;DHT22;22654;51.054;3.654;2023-02-01T00:14:29;6.60;99.90
36660;DHT22;22654;51.054;3.654;2023-02-01T00:16:54;6.30;99.90
36660;DHT22;22654;51.054;3.654;2023-02-01T00:19:20;6.30;99.90
36660;DHT22;22654;51.054;3.654;2023-02-01T00:21:46;6.20;99.90
36660;DHT22;22654;51.054;3.654;2023-02-01T00:24:12;6.10;99.90
36660;DHT22;22654;51.054;3.654;2023-02-01T00:26:41;6.00;99.90
36660;DHT22;22654;51.054;3.654;2023-02-01T00:29:12;6.10;99.90
36660;DHT22;22654;51.054;3.654;2023-02-01T00:31:38;6.10;99.90
36660;DHT22;22654;51.054;3.654;2023-02-01T00:34:04;6.10;99.90
36660;DHT22;22654;51.054;3.654;2023-02-01T00:36:30;6.10;99.90
36660;DHT22;22654;51.054;3.654;2023-02-01T00:38:56;5.90;99.90
36660;DHT22;22654;51.054;3.654;2023-02-01T00:41:22;5.80;99.90
36660;DHT22;22654;51.054;3.654;2023-02-01T00:43:50;5.70;99.90
36660;DHT22;22654;51.054;3.654;2023-02-01T00:46:16;5.60;99.90
36660;DHT22;22654;51.054;3.654;2023-02-01T00:48:43;5.60;99.90
36660;DHT22;22654;51.054;3.654;2023-02-01T00:51:10;5.70;99.90
36660;DHT22;22654;51.054;3.654;2023-02-01T00:53:36;5.70;99.90
36660;DHT22;22654;51.054;3.654;2023-02-01T00:56:02;5.80;99.90
36660;DHT22;22654;51.054;3.654;2023-02-01T00:58:28;5.70;99.90
36660;DHT22;22654;51.054;3.654;2023-02-01T01:01:04;5.70;99.90
36660;DHT22;22654;51.054;3.654;2023-02-01T01:03:30;5.70;99.90
36660;DHT22;22654;51.054;3.654;2023-02-01T01:05:59;5.60;99.90
36660;DHT22;22654;51.054;3.654;2023-02-01T01:08:25;5.50;99.90
36660;DHT22;22654;51.054;3.654;2023-02-01T01:10:51;5.50;99.90
36660;DHT22;22654;51.054;3.654;2023-02-01T01:13:17;5.50;99.90
36660;DHT22;22654;51.054;3.654;2023-02-01T01:15:42;5.40;99.90
36660;DHT22;22654;51.054;3.654;2023-02-01T01:18:09;5.30;99.90
36660;DHT22;22654;51.054;3.654;2023-02-01T01:20:35;5.30;99.90
36660;DHT22;22654;51.054;3.654;2023-02-01T01:23:01;5.30;99.90
36660;DHT22;22654;51.054;3.654;2023-02-01T01:25:27;5.20;99.90
36660;DHT22;22654;51.054;3.654;2023-02-01T01:27:54;5.20;99.90
36660;DHT22;22654;51.054;3.654;2023-02-01T01:30:20;5.20;99.90
36660;DHT22;22654;51.054;3.654;2023-02-01T01:32:46;5.20;99.90
36660;DHT22;22654;51.054;3.654;2023-02-01T01:35:11;5.20;99.90
36660;DHT22;22654;51.054;3.654;2023-02-01T01:37:37;5.20;99.90
36660;DHT22;22654;51.054;3.654;2023-02-01T01:40:04;5.10;99.90
36660;DHT22;22654;51.054;3.654;2023-02-01T01:42:30;5.10;99.90
36660;DHT22;22654;51.054;3.654;2023-02-01T01:44:57;5.20;99.90
36660;DHT22;22654;51.054;3.654;2023-02-01T01:47:25;5.10;99.90
36660;DHT22;22654;51.054;3.654;2023-02-01T01:49:52;4.90;99.90
36660;DHT22;22654;51.054;3.654;2023-02-01T01:52:18;5.00;99.90
36660;DHT22;22654;51.054;3.654;2023-02-01T01:54:45;5.10;99.90
36660;DHT22;22654;51.054;3.654;2023-02-01T01:57:23;5.20;99.90
36660;DHT22;22654;51.054;3.654;2023-02-01T01:59:53;5.20;99.90
36660;DHT22;22654;51.054;3.654;2023-02-01T02:02:20;5.10;99.90
36660;DHT22;22654;51.054;3.654;2023-02-01T02:04:46;5.20;99.90
36660;DHT22;22654;51.054;3.654;2023-02-01T02:07:17;5.10;99.90
36660;DHT22;22654;51.054;3.654;2023-02-01T02:09:44;5.20;99.90
36660;DHT22;22654;51.054;3.654;2023-02-01T02:12:10;5.10;99.90
36660;DHT22;22654;51.054;3.654;2023-02-01T02:14:36;5.00;99.90
36660;DHT22;22654;51.054;3.654;2023-02-01T02:30:36;4.70;99.90
36660;DHT22;22654;51.054;3.654;2023-02-01T02:41:23;4.90;99.90
36660;DHT22;22654;51.054;3.654;2023-02-01T02:44:32;5.00;99.90
36660;DHT22;22654;51.054;3.654;2023-02-01T02:47:22;5.00;99.90
36660;DHT22;22654;51.054;3.654;2023-02-01T02:49:56;5.10;99.90
36660;DHT22;22654;51.054;3.654;2023-02-01T02:52:45;5.10;99.90
36660;DHT22;22654;51.054;3.654;2023-02-01T02:55:32;5.20;99.90
36660;DHT22;22654;51.054;3.654;2023-02-01T02:58:01;5.10;99.90
36660;DHT22;22654;51.054;3.654;2023-02-01T03:00:46;5.00;99.90
36660;DHT22;22654;51.054;3.654;2023-02-01T03:03:35;5.20;99.90
36660;DHT22;22654;51.054;3.654;2023-02-01T03:06:19;5.30;99.90
36660;DHT22;22654;51.054;3.654;2023-02-01T03:08:46;5.20;99.90
36660;DHT22;22654;51.054;3.654;2023-02-01T03:11:12;5.20;99.90
36660;DHT22;22654;51.054;3.654;2023-02-01T03:21:06;5.40;99.90
36660;DHT22;22654;51.054;3.654;2023-02-01T03:23:41;5.40;99.90
36660;DHT22;22654;51.054;3.654;2023-02-01T03:26:09;5.40;99.90
36660;DHT22;22654;51.054;3.654;2023-02-01T03:28:37;5.40;99.90
36660;DHT22;22654;51.054;3.654;2023-02-01T03:31:04;5.50;99.90
36660;DHT22;22654;51.054;3.654;2023-02-01T03:33:31;5.50;99.90
36660;DHT22;22654;51.054;3.654;2023-02-01T03:43:52;5.60;99.90
36660;DHT22;22654;51.054;3.654;2023-02-01T03:46:24;5.50;99.90
36660;DHT22;22654;51.054;3.654;2023-02-01T03:48:53;5.60;99.90
36660;DHT22;22654;51.054;3.654;2023-02-01T03:51:20;5.50;99.90
36660;DHT22;22654;51.054;3.654;2023-02-01T03:53:46;5.50;99.90
36660;DHT22;22654;51.054;3.654;2023-02-01T03:56:13;5.40;99.90
36660;DHT22;22654;51.054;3.654;2023-02-01T03:58:40;5.40;99.90
36660;DHT22;22654;51.054;3.654;2023-02-01T04:01:06;5.40;99.90
36660;DHT22;22654;51.054;3.654;2023-02-01T04:03:35;5.30;99.90
36660;DHT22;22654;51.054;3.654;2023-02-01T04:06:01;5.30;99.90
36660;DHT22;22654;51.054;3.654;2023-02-01T04:08:31;5.20;99.90
36660;DHT22;22654;51.054;3.654;2023-02-01T04:11:00;5.20;99.90
36660;DHT22;22654;51.054;3.654;2023-02-01T04:13:28;5.10;99.90
36660;DHT22;22654;51.054;3.654;2023-02-01T04:15:54;5.10;99.90
36660;DHT22;22654;51.054;3.654;2023-02-01T04:18:21;5.10;99.90
36660;DHT22;22654;51.054;3.654;2023-02-01T04:20:47;5.10;99.90
36660;DHT22;22654;51.054;3.654;2023-02-01T04:23:13;5.20;99.90
36660;DHT22;22654;51.054;3.654;2023-02-01T04:25:41;5.10;99.90
36660;DHT22;22654;51.054;3.654;2023-02-01T04:28:06;5.10;99.90
36660;DHT22;22654;51.054;3.654;2023-02-01T04:30:32;5.10;99.90
36660;DHT22;22654;51.054;3.654;2023-02-01T04:32:58;5.00;99.90
36660;DHT22;22654;51.054;3.654;2023-02-01T04:35:23;5.10;99.90
36660;DHT22;22654;51.054;3.654;2023-02-01T04:37:49;5.00;99.90
36660;DHT22;22654;51.054;3.654;2023-02-01T04:40:15;4.90;99.90
36660;DHT22;22654;51.054;3.654;2023-02-01T04:42:41;4.90;99.90
36660;DHT22;22654;51.054;3.654;2023-02-01T04:45:06;4.90;99.90
36660;DHT22;22654;51.054;3.654;2023-02-01T04:47:32;4.90;99.90
36660;DHT22;22654;51.054;3.654;2023-02-01T04:49:58;4.90;99.90
36660;DHT22;22654;51.054;3.654;2023-02-01T04:52:27;4.90;99.90
36660;DHT22;22654;51.054;3.654;2023-02-01T04:54:52;4.90;99.90
36660;DHT22;22654;51.054;3.654;2023-02-01T04:57:19;4.80;99.90
36660;DHT22;22654;51.054;3.654;2023-02-01T04:59:45;4.90;99.90
36660;DHT22;22654;51.054;3.654;2023-02-01T05:02:11;4.80;99.90
36660;DHT22;22654;51.054;3.654;2023-02-01T05:04:37;4.90;99.90
36660;DHT22;22654;51.054;3.654;2023-02-01T05:07:02;4.80;99.90
36660;DHT22;22654;51.054;3.654;2023-02-01T05:09:28;4.90;99.90
36660;DHT22;22654;51.054;3.654;2023-02-01T05:11:54;4.90;99.90
36660;DHT22;22654;51.054;3.654;2023-02-01T05:14:38;4.90;99.90
36660;DHT22;22654;51.054;3.654;2023-02-01T05:17:04;4.80;99.90
36660;DHT22;22654;51.054;3.654;2023-02-01T05:19:29;4.80;99.90
36660;DHT22;22654;51.054;3.654;2023-02-01T05:21:55;4.90;99.90
36660;DHT22;22654;51.054;3.654;2023-02-01T05:24:21;5.00;99.90
36660;DHT22;22654;51.054;3.654;2023-02-01T05:26:47;5.00;99.90
36660;DHT22;22654;51.054;3.654;2023-02-01T05:29:13;5.10;99.90
36660;DHT22;22654;51.054;3.654;2023-02-01T05:31:39;4.90;99.90
36660;DHT22;22654;51.054;3.654;2023-02-01T05:34:04;4.90;99.90
36660;DHT22;22654;51.054;3.654;2023-02-01T05:36:37;5.00;99.90
36660;DHT22;22654;51.054;3.654;2023-02-01T05:39:03;4.90;99.90
36660;DHT22;22654;51.054;3.654;2023-02-01T05:41:28;4.90;99.90
36660;DHT22;22654;51.054;3.654;2023-02-01T05:43:54;4.70;99.90
36660;DHT22;22654;51.054;3.654;2023-02-01T05:46:23;4.70;99.90
36660;DHT22;22654;51.054;3.654;2023-02-01T05:48:48;4.90;99.90
36660;DHT22;22654;51.054;3.654;2023-02-01T05:51:14;4.90;99.90
36660;DHT22;22654;51.054;3.654;2023-02-01T05:53:40;4.80;99.90
36660;DHT22;22654;51.054;3.654;2023-02-01T05:56:06;4.80;99.90
36660;DHT22;22654;51.054;3.654;2023-02-01T05:58:32;4.80;99.90
36660;DHT22;22654;51.054;3.654;2023-02-01T06:01:01;4.80;99.90
36660;DHT22;22654;51.054;3.654;2023-02-01T06:03:27;4.80;99.90
36660;DHT22;22654;51.054;3.654;2023-02-01T06:05:53;4.80;99.90
36660;DHT22;22654;51.054;3.654;2023-02-01T06:08:19;4.80;99.90
36660;DHT22;22654;51.054;3.654;2023-02-01T06:10:44;4.70;99.90
36660;DHT22;22654;51.054;3.654;2023-02-01T06:13:10;4.70;99.90
36660;DHT22;22654;51.054;3.654;2023-02-01T06:15:36;4.70;99.90
36660;DHT22;22654;51.054;3.654;2023-02-01T06:18:03;4.80;99.90
36660;DHT22;22654;51.054;3.654;2023-02-01T06:20:29;4.80;99.90
36660;DHT22;22654;51.054;3.654;2023-02-01T06:22:54;4.70;99.90
36660;DHT22;22654;51.054;3.654;2023-02-01T06:25:20;4.70;99.90
36660;DHT22;22654;51.054;3.654;2023-02-01T06:27:46;4.80;99.90
36660;DHT22;22654;51.054;3.654;2023-02-01T06:30:12;4.90;99.90
36660;DHT22;22654;51.054;3.654;2023-02-01T06:32:42;4.90;99.90
36660;DHT22;22654;51.054;3.654;2023-02-01T06:35:08;4.90;99.90
36660;DHT22;22654;51.054;3.654;2023-02-01T06:37:37;4.80;99.90
36660;DHT22;22654;51.054;3.654;2023-02-01T06:40:03;4.80;99.90
36660;DHT22;22654;51.054;3.654;2023-02-01T06:42:29;4.90;99.90
36660;DHT22;22654;51.054;3.654;2023-02-01T06:44:54;4.90;99.90
36660;DHT22;22654;51.054;3.654;2023-02-01T06:47:20;4.90;99.90
36660;DHT22;22654;51.054;3.654;2023-02-01T06:49:46;4.90;99.90
36660;DHT22;22654;51.054;3.654;2023-02-01T06:52:12;4.50;99.90
36660;DHT22;22654;51.054;3.654;2023-02-01T06:54:37;4.90;99.90
36660;DHT22;22654;51.054;3.654;2023-02-01T06:57:03;4.90;99.90
36660;DHT22;22654;51.054;3.654;2023-02-01T06:59:29;4.90;99.90
36660;DHT22;22654;51.054;3.654;2023-02-01T07:01:55;4.90;99.90
36660;DHT22;22654;51.054;3.654;2023-02-01T07:04:21;5.00;99.90
36660;DHT22;22654;51.054;3.654;2023-02-01T07:06:47;4.90;99.90
36660;DHT22;22654;51.054;3.654;2023-02-01T07:09:13;4.90;99.90
36660;DHT22;22654;51.054;3.654;2023-02-01T07:11:39;4.90;99.90
36660;DHT22;22654;51.054;3.654;2023-02-01T07:14:09;4.90;99.90
36660;DHT22;22654;51.054;3.654;2023-02-01T07:16:34;4.90;99.90
36660;DHT22;22654;51.054;3.654;2023-02-01T07:19:00;4.90;99.90
36660;DHT22;22654;51.054;3.654;2023-02-01T07:21:27;4.90;99.90
36660;DHT22;22654;51.054;3.654;2023-02-01T07:23:53;4.90;99.90
36660;DHT22;22654;51.054;3.654;2023-02-01T07:26:19;4.90;99.90
36660;DHT22;22654;51.054;3.654;2023-02-01T07:28:45;5.00;99.90
36660;DHT22;22654;51.054;3.654;2023-02-01T07:31:16;4.80;99.90
36660;DHT22;22654;51.054;3.654;2023-02-01T07:33:44;4.90;99.90
36660;DHT22;22654;51.054;3.654;2023-02-01T07:36:11;5.10;99.90
36660;DHT22;22654;51.054;3.654;2023-02-01T07:38:37;5.20;99.90
36660;DHT22;22654;51.054;3.654;2023-02-01T07:41:03;5.10;99.90
36660;DHT22;22654;51.054;3.654;2023-02-01T07:43:29;5.20;99.90
36660;DHT22;22654;51.054;3.654;2023-02-01T07:45:55;5.40;99.90
36660;DHT22;22654;51.054;3.654;2023-02-01T07:48:22;5.50;99.90
36660;DHT22;22654;51.054;3.654;2023-02-01T07:50:56;5.50;99.90
36660;DHT22;22654;51.054;3.654;2023-02-01T07:53:21;5.60;99.90
36660;DHT22;22654;51.054;3.654;2023-02-01T07:55:47;5.70;99.90
36660;DHT22;22654;51.054;3.654;2023-02-01T07:58:13;5.80;99.90
36660;DHT22;22654;51.054;3.654;2023-02-01T08:00:39;5.80;99.90
36660;DHT22;22654;51.054;3.654;2023-02-01T08:03:23;5.90;99.90
36660;DHT22;22654;51.054;3.654;2023-02-01T08:05:53;6.00;99.90
36660;DHT22;22654;51.054;3.654;2023-02-01T08:08:19;6.20;99.90
36660;DHT22;22654;51.054;3.654;2023-02-01T08:10:45;6.20;99.90
36660;DHT22;22654;51.054;3.654;2023-02-01T08:13:10;6.20;99.90
36660;DHT22;22654;51.054;3.654;2023-02-01T08:15:36;6.30;99.90
36660;DHT22;22654;51.054;3.654;2023-02-01T08:18:02;6.40;99.90
36660;DHT22;22654;51.054;3.654;2023-02-01T08:20:28;6.60;99.90
36660;DHT22;22654;51.054;3.654;2023-02-01T08:22:54;6.60;99.90
36660;DHT22;22654;51.054;3.654;2023-02-01T08:25:20;6.60;99.90
36660;DHT22;22654;51.054;3.654;2023-02-01T08:27:48;6.60;99.90
36660;DHT22;22654;51.054;3.654;2023-02-01T08:30:14;6.70;99.90
36660;DHT22;22654;51.054;3.654;2023-02-01T08:32:40;6.70;99.90
36660;DHT22;22654;51.054;3.654;2023-02-01T08:35:06;6.80;99.90
36660;DHT22;22654;51.054;3.654;2023-02-01T08:37:31;6.80;99.90
36660;DHT22;22654;51.054;3.654;2023-02-01T08:39:57;6.80;99.90
36660;DHT22;22654;51.054;3.654;2023-02-01T08:42:23;6.80;99.90
36660;DHT22;22654;51.054;3.654;2023-02-01T08:45:07;6.80;99.90
36660;DHT22;22654;51.054;3.654;2023-02-01T08:47:35;6.90;99.90
36660;DHT22;22654;51.054;3.654;2023-02-01T08:50:00;7.00;99.90
36660;DHT22;22654;51.054;3.654;2023-02-01T08:52:26;7.10;99.90
36660;DHT22;22654;51.054;3.654;2023-02-01T08:54:52;7.20;99.90
36660;DHT22;22654;51.054;3.654;2023-02-01T08:57:18;7.40;99.90
36660;DHT22;22654;51.054;3.654;2023-02-01T08:59:43;7.60;99.90
36660;DHT22;22654;51.054;3.654;2023-02-01T09:02:13;7.70;99.90
36660;DHT22;22654;51.054;3.654;2023-02-01T09:04:39;7.80;99.90
36660;DHT22;22654;51.054;3.654;2023-02-01T09:07:04;8.00;99.90
36660;DHT22;22654;51.054;3.654;2023-02-01T09:09:30;8.10;99.90
36660;DHT22;22654;51.054;3.654;2023-02-01T09:11:56;8.20;99.90
36660;DHT22;22654;51.054;3.654;2023-02-01T09:14:22;8.30;99.90
36660;DHT22;22654;51.054;3.654;2023-02-01T09:16:48;8.40;99.90
36660;DHT22;22654;51.054;3.654;2023-02-01T09:19:14;8.40;99.90
36660;DHT22;22654;51.054;3.654;2023-02-01T09:21:40;8.50;99.90
36660;DHT22;22654;51.054;3.654;2023-02-01T09:24:06;8.50;99.90
36660;DHT22;22654;51.054;3.654;2023-02-01T09:26:32;8.50;99.90
36660;DHT22;22654;51.054;3.654;2023-02-01T09:28:58;8.50;99.90
36660;DHT22;22654;51.054;3.654;2023-02-01T09:31:24;8.50;99.90
36660;DHT22;22654;51.054;3.654;2023-02-01T09:33:50;8.50;99.90
36660;DHT22;22654;51.054;3.654;2023-02-01T09:36:15;8.60;99.90
36660;DHT22;22654;51.054;3.654;2023-02-01T09:38:41;8.60;99.90
36660;DHT22;22654;51.054;3.654;2023-02-01T09:41:29;8.70;99.90
36660;DHT22;22654;51.054;3.654;2023-02-01T09:43:56;8.70;99.90
36660;DHT22;22654;51.054;3.654;2023-02-01T09:46:28;8.60;99.90
36660;DHT22;22654;51.054;3.654;2023-02-01T09:48:56;8.70;99.90
36660;DHT22;22654;51.054;3.654;2023-02-01T09:51:45;8.70;99.90
36660;DHT22;22654;51.054;3.654;2023-02-01T09:54:11;8.80;99.90
36660;DHT22;22654;51.054;3.654;2023-02-01T09:56:53;8.90;99.90
36660;DHT22;22654;51.054;3.654;2023-02-01T09:59:26;9.00;99.90
36660;DHT22;22654;51.054;3.654;2023-02-01T10:01:54;9.10;99.90
36660;DHT22;22654;51.054;3.654;2023-02-01T10:04:20;9.20;99.90
36660;DHT22;22654;51.054;3.654;2023-02-01T10:22:05;9.30;99.90
36660;DHT22;22654;51.054;3.654;2023-02-01T10:27:14;9.40;99.90
36660;DHT22;22654;51.054;3.654;2023-02-01T10:29:43;9.30;99.90
36660;DHT22;22654;51.054;3.654;2023-02-01T10:32:12;9.40;99.90
36660;DHT22;22654;51.054;3.654;2023-02-01T10:34:38;9.40;99.90
36660;DHT22;22654;51.054;3.654;2023-02-01T10:37:14;9.50;99.90
36660;DHT22;22654;51.054;3.654;2023-02-01T10:39:46;9.50;99.90
36660;DHT22;22654;51.054;3.654;2023-02-01T10:42:13;9.50;99.90
36660;DHT22;22654;51.054;3.654;2023-02-01T10:44:40;9.50;99.90
36660;DHT22;22654;51.054;3.654;2023-02-01T10:47:09;9.50;99.90
36660;DHT22;22654;51.054;3.654;2023-02-01T10:52:32;9.40;99.90
36660;DHT22;22654;51.054;3.654;2023-02-01T10:55:47;9.40;99.90
36660;DHT22;22654;51.054;3.654;2023-02-01T10:57:54;9.50;99.90
36660;DHT22;22654;51.054;3.654;2023-02-01T11:00:20;9.60;99.90
36660;DHT22;22654;51.054;3.654;2023-02-01T11:02:47;9.90;99.90
36660;DHT22;22654;51.054;3.654;2023-02-01T11:05:15;10.10;99.90
36660;DHT22;22654;51.054;3.654;2023-02-01T11:07:46;10.30;99.90
36660;DHT22;22654;51.054;3.654;2023-02-01T11:10:33;10.40;99.90
36660;DHT22;22654;51.054;3.654;2023-02-01T11:12:58;10.40;99.90
36660;DHT22;22654;51.054;3.654;2023-02-01T11:15:27;10.50;99.90
36660;DHT22;22654;51.054;3.654;2023-02-01T11:17:52;10.70;99.90
36660;DHT22;22654;51.054;3.654;2023-02-01T11:22:56;11.10;99.90
36660;DHT22;22654;51.054;3.654;2023-02-01T11:25:22;11.10;99.90
36660;DHT22;22654;51.054;3.654;2023-02-01T11:27:49;11.10;99.90
36660;DHT22;22654;51.054;3.654;2023-02-01T11:30:24;11.10;99.90
36660;DHT22;22654;51.054;3.654;2023-02-01T11:32:52;11.10;99.90
36660;DHT22;22654;51.054;3.654;2023-02-01T11:35:19;11.20;99.90
36660;DHT22;22654;51.054;3.654;2023-02-01T11:37:48;11.20;99.90
36660;DHT22;22654;51.054;3.654;2023-02-01T11:43:01;11.30;99.90
36660;DHT22;22654;51.054;3.654;2023-02-01T11:45:31;11.30;99.90
36660;DHT22;22654;51.054;3.654;2023-02-01T11:48:00;11.10;99.90
36660;DHT22;22654;51.054;3.654;2023-02-01T11:50:50;10.90;99.90
36660;DHT22;22654;51.054;3.654;2023-02-01T11:58:56;11.00;99.90
36660;DHT22;22654;51.054;3.654;2023-02-01T12:01:37;11.10;99.90
36660;DHT22;22654;51.054;3.654;2023-02-01T12:04:15;11.00;99.90
36660;DHT22;22654;51.054;3.654;2023-02-01T12:07:03;11.00;99.90
36660;DHT22;22654;51.054;3.654;2023-02-01T12:09:38;11.00;99.90
36660;DHT22;22654;51.054;3.654;2023-02-01T12:14:36;11.00;99.90
36660;DHT22;22654;51.054;3.654;2023-02-01T12:24:44;11.20;99.90
36660;DHT22;22654;51.054;3.654;2023-02-01T12:35:29;11.10;99.90
36660;DHT22;22654;51.054;3.654;2023-02-01T12:38:05;11.00;99.90
36660;DHT22;22654;51.054;3.654;2023-02-01T12:45:57;10.80;99.90
36660;DHT22;22654;51.054;3.654;2023-02-01T12:50:53;11.00;99.90
36660;DHT22;22654;51.054;3.654;2023-02-01T12:56:13;10.90;99.90
36660;DHT22;22654;51.054;3.654;2023-02-01T12:58:50;11.00;99.90
36660;DHT22;22654;51.054;3.654;2023-02-01T13:04:13;11.00;99.90
36660;DHT22;22654;51.054;3.654;2023-02-01T13:06:43;11.10;99.90
36660;DHT22;22654;51.054;3.654;2023-02-01T13:09:24;11.30;99.90
36660;DHT22;22654;51.054;3.654;2023-02-01T13:11:51;11.30;99.90
36660;DHT22;22654;51.054;3.654;2023-02-01T13:17:00;11.60;99.90
36660;DHT22;22654;51.054;3.654;2023-02-01T13:22:09;12.00;99.90
36660;DHT22;22654;51.054;3.654;2023-02-01T13:24:42;12.00;99.90
36660;DHT22;22654;51.054;3.654;2023-02-01T13:27:14;11.80;99.90
36660;DHT22;22654;51.054;3.654;2023-02-01T13:29:44;11.60;99.90
36660;DHT22;22654;51.054;3.654;2023-02-01T13:32:18;11.50;99.90
36660;DHT22;22654;51.054;3.654;2023-02-01T13:35:00;11.70;99.90
36660;DHT22;22654;51.054;3.654;2023-02-01T13:43:05;11.90;99.90
36660;DHT22;22654;51.054;3.654;2023-02-01T13:45:26;11.90;99.90
36660;DHT22;22654;51.054;3.654;2023-02-01T13:47:54;11.90;99.90
36660;DHT22;22654;51.054;3.654;2023-02-01T13:52:51;12.00;99.90
36660;DHT22;22654;51.054;3.654;2023-02-01T13:57:49;11.80;99.90
36660;DHT22;22654;51.054;3.654;2023-02-01T14:00:28;12.00;99.90
36660;DHT22;22654;51.054;3.654;2023-02-01T14:03:02;12.10;99.90
36660;DHT22;22654;51.054;3.654;2023-02-01T14:08:09;12.10;99.90
36660;DHT22;22654;51.054;3.654;2023-02-01T14:13:27;11.90;99.90
36660;DHT22;22654;51.054;3.654;2023-02-01T14:23:45;11.30;99.90
36660;DHT22;22654;51.054;3.654;2023-02-01T14:26:16;11.20;99.90
36660;DHT22;22654;51.054;3.654;2023-02-01T14:29:26;11.10;99.90
36660;DHT22;22654;51.054;3.654;2023-02-01T14:31:32;11.10;99.90
36660;DHT22;22654;51.054;3.654;2023-02-01T14:34:09;10.90;99.90
36660;DHT22;22654;51.054;3.654;2023-02-01T14:36:44;10.80;99.90
36660;DHT22;22654;51.054;3.654;2023-02-01T14:39:19;10.80;99.90
36660;DHT22;22654;51.054;3.654;2023-02-01T14:41:46;10.80;99.90
36660;DHT22;22654;51.054;3.654;2023-02-01T14:44:13;10.70;99.90
36660;DHT22;22654;51.054;3.654;2023-02-01T14:49:24;10.60;99.90
36660;DHT22;22654;51.054;3.654;2023-02-01T14:51:54;10.60;99.90
36660;DHT22;22654;51.054;3.654;2023-02-01T14:54:19;10.60;99.90
36660;DHT22;22654;51.054;3.654;2023-02-01T14:56:46;10.50;99.90
36660;DHT22;22654;51.054;3.654;2023-02-01T14:59:14;10.40;99.90
36660;DHT22;22654;51.054;3.654;2023-02-01T15:01:50;10.50;99.90
36660;DHT22;22654;51.054;3.654;2023-02-01T15:04:17;10.50;99.90
36660;DHT22;22654;51.054;3.654;2023-02-01T15:06:47;10.40;99.90
36660;DHT22;22654;51.054;3.654;2023-02-01T15:09:15;10.30;99.90
36660;DHT22;22654;51.054;3.654;2023-02-01T15:14:26;10.30;99.90
36660;DHT22;22654;51.054;3.654;2023-02-01T15:16:52;10.30;99.90
36660;DHT22;22654;51.054;3.654;2023-02-01T15:19:22;10.20;99.90
36660;DHT22;22654;51.054;3.654;2023-02-01T15:21:49;10.10;99.90
36660;DHT22;22654;51.054;3.654;2023-02-01T15:24:28;10.10;99.90
36660;DHT22;22654;51.054;3.654;2023-02-01T15:26:54;10.10;99.90
36660;DHT22;22654;51.054;3.654;2023-02-01T15:29:21;10.20;99.90
36660;DHT22;22654;51.054;3.654;2023-02-01T15:31:48;10.20;99.90
36660;DHT22;22654;51.054;3.654;2023-02-01T15:34:14;10.00;99.90
36660;DHT22;22654;51.054;3.654;2023-02-01T15:36:41;9.90;99.90
36660;DHT22;22654;51.054;3.654;2023-02-01T15:41:46;9.90;99.90
36660;DHT22;22654;51.054;3.654;2023-02-01T15:44:16;9.90;99.90
36660;DHT22;22654;51.054;3.654;2023-02-01T15:46:45;9.90;99.90
36660;DHT22;22654;51.054;3.654;2023-02-01T15:49:16;9.90;99.90
36660;DHT22;22654;51.054;3.654;2023-02-01T15:51:44;9.90;99.90
36660;DHT22;22654;51.054;3.654;2023-02-01T15:54:17;9.90;99.90
36660;DHT22;22654;51.054;3.654;2023-02-01T15:56:49;9.80;99.90
36660;DHT22;22654;51.054;3.654;2023-02-01T16:08:00;9.60;99.90
36660;DHT22;22654;51.054;3.654;2023-02-01T16:10:29;9.50;99.90
36660;DHT22;22654;51.054;3.654;2023-02-01T16:12:56;9.60;99.90
36660;DHT22;22654;51.054;3.654;2023-02-01T16:15:28;9.60;99.90
36660;DHT22;22654;51.054;3.654;2023-02-01T16:17:55;9.60;99.90
36660;DHT22;22654;51.054;3.654;2023-02-01T16:20:21;9.90;99.90
36660;DHT22;22654;51.054;3.654;2023-02-01T16:22:47;10.00;99.90
36660;DHT22;22654;51.054;3.654;2023-02-01T16:25:13;10.00;99.90
36660;DHT22;22654;51.054;3.654;2023-02-01T16:27:38;9.90;99.90
36660;DHT22;22654;51.054;3.654;2023-02-01T16:30:04;9.80;99.90
36660;DHT22;22654;51.054;3.654;2023-02-01T16:32:30;9.70;99.90
36660;DHT22;22654;51.054;3.654;2023-02-01T16:34:56;9.50;99.90
36660;DHT22;22654;51.054;3.654;2023-02-01T16:37:22;9.50;99.90
36660;DHT22;22654;51.054;3.654;2023-02-01T16:39:48;9.50;99.90
36660;DHT22;22654;51.054;3.654;2023-02-01T16:42:15;9.40;99.90
36660;DHT22;22654;51.054;3.654;2023-02-01T16:44:41;9.40;99.90
36660;DHT22;22654;51.054;3.654;2023-02-01T16:47:11;9.40;99.90
36660;DHT22;22654;51.054;3.654;2023-02-01T16:49:38;9.30;99.90
36660;DHT22;22654;51.054;3.654;2023-02-01T16:52:09;9.30;99.90
36660;DHT22;22654;51.054;3.654;2023-02-01T16:54:37;9.30;99.90
36660;DHT22;22654;51.054;3.654;2023-02-01T16:57:02;9.40;99.90
36660;DHT22;22654;51.054;3.654;2023-02-01T16:59:28;9.40;99.90
36660;DHT22;22654;51.054;3.654;2023-02-01T17:01:54;9.40;99.90
36660;DHT22;22654;51.054;3.654;2023-02-01T17:04:20;9.40;99.90
36660;DHT22;22654;51.054;3.654;2023-02-01T17:06:46;9.40;99.90
36660;DHT22;22654;51.054;3.654;2023-02-01T17:09:14;9.40;99.90
36660;DHT22;22654;51.054;3.654;2023-02-01T17:11:40;9.40;99.90
36660;DHT22;22654;51.054;3.654;2023-02-01T17:14:25;9.40;99.90
36660;DHT22;22654;51.054;3.654;2023-02-01T17:16:51;9.50;99.90
36660;DHT22;22654;51.054;3.654;2023-02-01T17:19:18;9.40;99.90
36660;DHT22;22654;51.054;3.654;2023-02-01T17:21:45;9.40;99.90
36660;DHT22;22654;51.054;3.654;2023-02-01T17:24:15;9.40;99.90
36660;DHT22;22654;51.054;3.654;2023-02-01T17:26:41;9.30;99.90
36660;DHT22;22654;51.054;3.654;2023-02-01T17:29:07;9.30;99.90
36660;DHT22;22654;51.054;3.654;2023-02-01T17:31:35;9.40;99.90
36660;DHT22;22654;51.054;3.654;2023-02-01T17:34:01;9.40;99.90
36660;DHT22;22654;51.054;3.654;2023-02-01T17:36:27;9.40;99.90
36660;DHT22;22654;51.054;3.654;2023-02-01T17:38:53;9.40;99.90
36660;DHT22;22654;51.054;3.654;2023-02-01T17:41:19;9.40;99.90
36660;DHT22;22654;51.054;3.654;2023-02-01T17:43:44;9.40;99.90
36660;DHT22;22654;51.054;3.654;2023-02-01T17:46:12;9.40;99.90
36660;DHT22;22654;51.054;3.654;2023-02-01T17:48:38;9.40;99.90
36660;DHT22;22654;51.054;3.654;2023-02-01T17:51:04;9.50;99.90
36660;DHT22;22654;51.054;3.654;2023-02-01T17:53:31;9.50;99.90
36660;DHT22;22654;51.054;3.654;2023-02-01T17:55:58;9.40;99.90
36660;DHT22;22654;51.054;3.654;2023-02-01T17:58:24;9.40;99.90
36660;DHT22;22654;51.054;3.654;2023-02-01T18:00:51;9.30;99.90
36660;DHT22;22654;51.054;3.654;2023-02-01T18:03:29;9.40;99.90
36660;DHT22;22654;51.054;3.654;2023-02-01T18:05:57;9.40;99.90
36660;DHT22;22654;51.054;3.654;2023-02-01T18:08:27;9.40;99.90
36660;DHT22;22654;51.054;3.654;2023-02-01T18:10:57;9.50;99.90
36660;DHT22;22654;51.054;3.654;2023-02-01T18:13:26;9.50;99.90
36660;DHT22;22654;51.054;3.654;2023-02-01T18:15:52;9.40;99.90
36660;DHT22;22654;51.054;3.654;2023-02-01T18:18:18;9.40;99.90